sensor_id;sensor_type;location;lat;lon;timestamp;P1;durP1;ratioP1;P2;durP2;ratioP2
52112;SDS011;38109;49.488;31.988;2023-05-28T00:00:32;3.80;;;3.03;;
52112;SDS011;38109;49.488;31.988;2023-05-28T00:02:58;3.55;;;3.03;;
52112;SDS011;38109;49.488;31.988;2023-05-28T00:05:24;3.25;;;2.90;;
52112;SDS011;38109;49.488;31.988;2023-05-28T00:07:50;3.42;;;2.60;;
52112;SDS011;38109;49.488;31.988;2023-05-28T00:10:16;3.78;;;2.97;;
52112;SDS011;38109;49.488;31.988;2023-05-28T00:12:42;4.10;;;2.88;;
52112;SDS011;38109;49.488;31.988;2023-05-28T00:15:08;3.13;;;2.70;;
52112;SDS011;38109;49.488;31.988;2023-05-28T00:17:34;3.08;;;2.70;;
52112;SDS011;38109;49.488;31.988;2023-05-28T00:19:59;3.97;;;2.85;;
52112;SDS011;38109;49.488;31.988;2023-05-28T00:22:25;3.47;;;2.80;;
52112;SDS011;38109;49.488;31.988;2023-05-28T00:24:51;5.63;;;2.83;;
52112;SDS011;38109;49.488;31.988;2023-05-28T00:27:17;3.95;;;2.70;;
52112;SDS011;38109;49.488;31.988;2023-05-28T00:29:42;4.63;;;3.28;;
52112;SDS011;38109;49.488;31.988;2023-05-28T00:32:08;3.10;;;2.47;;
52112;SDS011;38109;49.488;31.988;2023-05-28T00:34:34;3.83;;;2.90;;
52112;SDS011;38109;49.488;31.988;2023-05-28T00:37:00;3.78;;;2.67;;
52112;SDS011;38109;49.488;31.988;2023-05-28T00:39:26;2.90;;;2.42;;
52112;SDS011;38109;49.488;31.988;2023-05-28T00:42:02;3.85;;;2.50;;
52112;SDS011;38109;49.488;31.988;2023-05-28T00:44:28;3.22;;;2.40;;
52112;SDS011;38109;49.488;31.988;2023-05-28T00:46:56;3.75;;;2.70;;
52112;SDS011;38109;49.488;31.988;2023-05-28T00:49:22;3.03;;;2.50;;
52112;SDS011;38109;49.488;31.988;2023-05-28T00:51:48;3.17;;;2.55;;
52112;SDS011;38109;49.488;31.988;2023-05-28T00:54:15;3.40;;;2.45;;
52112;SDS011;38109;49.488;31.988;2023-05-28T00:56:41;3.28;;;2.55;;
52112;SDS011;38109;49.488;31.988;2023-05-28T00:59:09;4.20;;;2.30;;
52112;SDS011;38109;49.488;31.988;2023-05-28T01:01:35;3.95;;;2.35;;
52112;SDS011;38109;49.488;31.988;2023-05-28T01:04:02;2.20;;;1.90;;
52112;SDS011;38109;49.488;31.988;2023-05-28T01:06:28;2.47;;;2.25;;
52112;SDS011;38109;49.488;31.988;2023-05-28T01:08:54;3.45;;;2.40;;
52112;SDS011;38109;49.488;31.988;2023-05-28T01:11:22;3.35;;;2.40;;
52112;SDS011;38109;49.488;31.988;2023-05-28T01:13:49;2.38;;;2.15;;
52112;SDS011;38109;49.488;31.988;2023-05-28T01:16:16;3.88;;;2.30;;
52112;SDS011;38109;49.488;31.988;2023-05-28T01:18:42;3.10;;;2.30;;
52112;SDS011;38109;49.488;31.988;2023-05-28T01:21:10;2.30;;;1.92;;
52112;SDS011;38109;49.488;31.988;2023-05-28T01:23:42;2.47;;;2.15;;
52112;SDS011;38109;49.488;31.988;2023-05-28T01:26:10;3.90;;;2.13;;
52112;SDS011;38109;49.488;31.988;2023-05-28T01:28:37;3.38;;;2.22;;
52112;SDS011;38109;49.488;31.988;2023-05-28T01:31:09;2.72;;;1.88;;
52112;SDS011;38109;49.488;31.988;2023-05-28T01:33:38;3.13;;;2.25;;
52112;SDS011;38109;49.488;31.988;2023-05-28T01:36:06;3.58;;;2.30;;
52112;SDS011;38109;49.488;31.988;2023-05-28T01:38:36;2.78;;;2.10;;
52112;SDS011;38109;49.488;31.988;2023-05-28T01:41:03;4.18;;;2.20;;
52112;SDS011;38109;49.488;31.988;2023-05-28T01:43:32;2.47;;;1.88;;
52112;SDS011;38109;49.488;31.988;2023-05-28T01:45:58;2.15;;;1.85;;
52112;SDS011;38109;49.488;31.988;2023-05-28T01:48:24;2.30;;;2.00;;
52112;SDS011;38109;49.488;31.988;2023-05-28T01:50:51;2.00;;;1.70;;
52112;SDS011;38109;49.488;31.988;2023-05-28T01:53:18;3.15;;;2.25;;
52112;SDS011;38109;49.488;31.988;2023-05-28T01:55:43;3.33;;;2.33;;
52112;SDS011;38109;49.488;31.988;2023-05-28T01:58:09;2.10;;;1.90;;
52112;SDS011;38109;49.488;31.988;2023-05-28T02:00:35;4.13;;;2.10;;
52112;SDS011;38109;49.488;31.988;2023-05-28T02:03:12;2.80;;;2.20;;
52112;SDS011;38109;49.488;31.988;2023-05-28T02:05:37;2.45;;;1.83;;
52112;SDS011;38109;49.488;31.988;2023-05-28T02:08:03;2.90;;;2.20;;
52112;SDS011;38109;49.488;31.988;2023-05-28T02:10:29;2.85;;;2.00;;
52112;SDS011;38109;49.488;31.988;2023-05-28T02:12:55;3.00;;;2.08;;
52112;SDS011;38109;49.488;31.988;2023-05-28T02:15:20;3.63;;;1.88;;
52112;SDS011;38109;49.488;31.988;2023-05-28T02:17:46;2.47;;;2.13;;
52112;SDS011;38109;49.488;31.988;2023-05-28T02:20:12;2.03;;;1.83;;
52112;SDS011;38109;49.488;31.988;2023-05-28T02:22:38;3.90;;;2.30;;
52112;SDS011;38109;49.488;31.988;2023-05-28T02:25:04;2.42;;;2.00;;
52112;SDS011;38109;49.488;31.988;2023-05-28T02:27:30;2.80;;;2.10;;
52112;SDS011;38109;49.488;31.988;2023-05-28T02:29:56;2.67;;;2.05;;
52112;SDS011;38109;49.488;31.988;2023-05-28T02:32:22;3.13;;;2.15;;
52112;SDS011;38109;49.488;31.988;2023-05-28T02:34:48;2.42;;;2.15;;
52112;SDS011;38109;49.488;31.988;2023-05-28T02:37:13;2.65;;;2.00;;
52112;SDS011;38109;49.488;31.988;2023-05-28T02:39:39;2.30;;;2.03;;
52112;SDS011;38109;49.488;31.988;2023-05-28T02:42:05;3.28;;;2.33;;
52112;SDS011;38109;49.488;31.988;2023-05-28T02:44:30;3.10;;;2.00;;
52112;SDS011;38109;49.488;31.988;2023-05-28T02:46:56;3.03;;;2.20;;
52112;SDS011;38109;49.488;31.988;2023-05-28T02:49:22;2.33;;;2.10;;
52112;SDS011;38109;49.488;31.988;2023-05-28T02:51:47;2.60;;;2.30;;
52112;SDS011;38109;49.488;31.988;2023-05-28T02:54:13;2.97;;;1.90;;
52112;SDS011;38109;49.488;31.988;2023-05-28T02:56:39;3.80;;;2.20;;
52112;SDS011;38109;49.488;31.988;2023-05-28T02:59:05;3.10;;;2.22;;
52112;SDS011;38109;49.488;31.988;2023-05-28T03:01:30;5.85;;;1.95;;
52112;SDS011;38109;49.488;31.988;2023-05-28T03:03:56;3.60;;;1.90;;
52112;SDS011;38109;49.488;31.988;2023-05-28T03:06:22;2.78;;;2.10;;
52112;SDS011;38109;49.488;31.988;2023-05-28T03:08:47;2.30;;;2.10;;
52112;SDS011;38109;49.488;31.988;2023-05-28T03:11:13;3.47;;;2.15;;
52112;SDS011;38109;49.488;31.988;2023-05-28T03:13:39;2.20;;;1.95;;
52112;SDS011;38109;49.488;31.988;2023-05-28T03:16:05;4.80;;;2.35;;
52112;SDS011;38109;49.488;31.988;2023-05-28T03:18:31;2.70;;;1.90;;
52112;SDS011;38109;49.488;31.988;2023-05-28T03:20:56;2.13;;;1.92;;
52112;SDS011;38109;49.488;31.988;2023-05-28T03:23:22;3.72;;;2.20;;
52112;SDS011;38109;49.488;31.988;2023-05-28T03:25:48;6.40;;;1.90;;
52112;SDS011;38109;49.488;31.988;2023-05-28T03:28:13;5.28;;;2.40;;
52112;SDS011;38109;49.488;31.988;2023-05-28T03:30:39;3.17;;;2.00;;
52112;SDS011;38109;49.488;31.988;2023-05-28T03:33:05;2.20;;;1.83;;
52112;SDS011;38109;49.488;31.988;2023-05-28T03:35:31;2.28;;;2.08;;
52112;SDS011;38109;49.488;31.988;2023-05-28T03:37:56;3.85;;;1.92;;
52112;SDS011;38109;49.488;31.988;2023-05-28T03:40:22;3.03;;;1.90;;
52112;SDS011;38109;49.488;31.988;2023-05-28T03:42:47;2.42;;;1.95;;
52112;SDS011;38109;49.488;31.988;2023-05-28T03:45:13;3.00;;;1.90;;
52112;SDS011;38109;49.488;31.988;2023-05-28T03:47:39;3.90;;;1.92;;
52112;SDS011;38109;49.488;31.988;2023-05-28T03:50:05;4.15;;;2.00;;
52112;SDS011;38109;49.488;31.988;2023-05-28T03:52:31;2.50;;;1.75;;
52112;SDS011;38109;49.488;31.988;2023-05-28T03:54:57;2.70;;;1.95;;
52112;SDS011;38109;49.488;31.988;2023-05-28T03:57:23;2.60;;;1.80;;
52112;SDS011;38109;49.488;31.988;2023-05-28T03:59:48;1.92;;;1.73;;
52112;SDS011;38109;49.488;31.988;2023-05-28T04:02:14;2.25;;;1.92;;
52112;SDS011;38109;49.488;31.988;2023-05-28T04:04:40;2.38;;;1.75;;
52112;SDS011;38109;49.488;31.988;2023-05-28T04:07:05;2.55;;;1.75;;
52112;SDS011;38109;49.488;31.988;2023-05-28T04:09:32;1.95;;;1.50;;
52112;SDS011;38109;49.488;31.988;2023-05-28T04:11:57;1.70;;;1.60;;
52112;SDS011;38109;49.488;31.988;2023-05-28T04:14:23;2.55;;;1.70;;
52112;SDS011;38109;49.488;31.988;2023-05-28T04:16:50;2.75;;;1.98;;
52112;SDS011;38109;49.488;31.988;2023-05-28T04:19:15;3.03;;;2.00;;
52112;SDS011;38109;49.488;31.988;2023-05-28T04:21:41;1.90;;;1.70;;
52112;SDS011;38109;49.488;31.988;2023-05-28T04:24:07;2.80;;;1.90;;
52112;SDS011;38109;49.488;31.988;2023-05-28T04:26:32;2.33;;;1.85;;
52112;SDS011;38109;49.488;31.988;2023-05-28T04:28:58;3.08;;;1.77;;
52112;SDS011;38109;49.488;31.988;2023-05-28T04:31:25;4.97;;;2.10;;
52112;SDS011;38109;49.488;31.988;2023-05-28T04:33:52;3.72;;;1.88;;
52112;SDS011;38109;49.488;31.988;2023-05-28T04:36:19;2.25;;;1.60;;
52112;SDS011;38109;49.488;31.988;2023-05-28T04:38:45;2.38;;;1.65;;
52112;SDS011;38109;49.488;31.988;2023-05-28T04:41:12;2.17;;;1.58;;
52112;SDS011;38109;49.488;31.988;2023-05-28T04:43:39;2.08;;;1.63;;
52112;SDS011;38109;49.488;31.988;2023-05-28T04:46:06;3.88;;;2.00;;
52112;SDS011;38109;49.488;31.988;2023-05-28T04:48:33;2.13;;;1.90;;
52112;SDS011;38109;49.488;31.988;2023-05-28T04:51:12;3.85;;;1.80;;
52112;SDS011;38109;49.488;31.988;2023-05-28T04:53:38;1.90;;;1.70;;
52112;SDS011;38109;49.488;31.988;2023-05-28T04:56:04;2.08;;;1.60;;
52112;SDS011;38109;49.488;31.988;2023-05-28T04:58:30;1.73;;;1.60;;
52112;SDS011;38109;49.488;31.988;2023-05-28T05:00:55;2.28;;;1.70;;
52112;SDS011;38109;49.488;31.988;2023-05-28T05:03:21;1.60;;;1.50;;
52112;SDS011;38109;49.488;31.988;2023-05-28T05:05:47;2.50;;;1.83;;
52112;SDS011;38109;49.488;31.988;2023-05-28T05:08:13;2.88;;;1.85;;
52112;SDS011;38109;49.488;31.988;2023-05-28T05:10:39;2.13;;;1.67;;
52112;SDS011;38109;49.488;31.988;2023-05-28T05:13:05;3.50;;;1.70;;
52112;SDS011;38109;49.488;31.988;2023-05-28T05:15:31;2.35;;;1.80;;
52112;SDS011;38109;49.488;31.988;2023-05-28T05:17:57;2.83;;;1.67;;
52112;SDS011;38109;49.488;31.988;2023-05-28T05:20:23;3.00;;;1.83;;
52112;SDS011;38109;49.488;31.988;2023-05-28T05:22:49;6.28;;;2.30;;
52112;SDS011;38109;49.488;31.988;2023-05-28T05:25:15;2.65;;;1.83;;
52112;SDS011;38109;49.488;31.988;2023-05-28T05:27:41;2.45;;;1.90;;
52112;SDS011;38109;49.488;31.988;2023-05-28T05:30:06;2.40;;;1.70;;
52112;SDS011;38109;49.488;31.988;2023-05-28T05:32:33;4.68;;;2.03;;
52112;SDS011;38109;49.488;31.988;2023-05-28T05:34:58;2.33;;;1.92;;
52112;SDS011;38109;49.488;31.988;2023-05-28T05:37:24;4.40;;;2.38;;
52112;SDS011;38109;49.488;31.988;2023-05-28T05:39:50;2.35;;;1.90;;
52112;SDS011;38109;49.488;31.988;2023-05-28T05:42:15;2.28;;;1.75;;
52112;SDS011;38109;49.488;31.988;2023-05-28T05:44:41;2.30;;;1.95;;
52112;SDS011;38109;49.488;31.988;2023-05-28T05:47:07;2.42;;;1.88;;
52112;SDS011;38109;49.488;31.988;2023-05-28T05:49:32;1.83;;;1.40;;
52112;SDS011;38109;49.488;31.988;2023-05-28T05:51:58;1.95;;;1.75;;
52112;SDS011;38109;49.488;31.988;2023-05-28T05:54:24;5.65;;;2.15;;
52112;SDS011;38109;49.488;31.988;2023-05-28T05:56:49;2.58;;;1.90;;
52112;SDS011;38109;49.488;31.988;2023-05-28T05:59:17;2.55;;;1.83;;
52112;SDS011;38109;49.488;31.988;2023-05-28T06:01:43;2.00;;;1.80;;
52112;SDS011;38109;49.488;31.988;2023-05-28T06:04:09;2.40;;;1.95;;
52112;SDS011;38109;49.488;31.988;2023-05-28T06:06:34;3.00;;;2.20;;
52112;SDS011;38109;49.488;31.988;2023-05-28T06:09:01;2.78;;;2.08;;
52112;SDS011;38109;49.488;31.988;2023-05-28T06:11:27;2.75;;;2.00;;
52112;SDS011;38109;49.488;31.988;2023-05-28T06:13:53;3.20;;;2.03;;
52112;SDS011;38109;49.488;31.988;2023-05-28T06:16:19;4.72;;;2.10;;
52112;SDS011;38109;49.488;31.988;2023-05-28T06:18:45;2.83;;;1.98;;
52112;SDS011;38109;49.488;31.988;2023-05-28T06:21:10;2.35;;;2.15;;
52112;SDS011;38109;49.488;31.988;2023-05-28T06:23:36;3.15;;;2.30;;
52112;SDS011;38109;49.488;31.988;2023-05-28T06:26:02;2.40;;;2.13;;
52112;SDS011;38109;49.488;31.988;2023-05-28T06:28:28;7.15;;;2.80;;
52112;SDS011;38109;49.488;31.988;2023-05-28T06:30:55;3.60;;;2.33;;
52112;SDS011;38109;49.488;31.988;2023-05-28T06:33:21;3.15;;;2.10;;
52112;SDS011;38109;49.488;31.988;2023-05-28T06:35:47;2.78;;;2.00;;
52112;SDS011;38109;49.488;31.988;2023-05-28T06:38:12;4.45;;;2.00;;
52112;SDS011;38109;49.488;31.988;2023-05-28T06:40:38;3.60;;;2.10;;
52112;SDS011;38109;49.488;31.988;2023-05-28T06:43:04;3.30;;;2.10;;
52112;SDS011;38109;49.488;31.988;2023-05-28T06:45:29;2.85;;;2.10;;
52112;SDS011;38109;49.488;31.988;2023-05-28T06:47:58;2.45;;;1.90;;
52112;SDS011;38109;49.488;31.988;2023-05-28T06:50:24;5.15;;;2.25;;
52112;SDS011;38109;49.488;31.988;2023-05-28T06:52:49;4.38;;;2.20;;
52112;SDS011;38109;49.488;31.988;2023-05-28T06:55:15;2.42;;;2.15;;
52112;SDS011;38109;49.488;31.988;2023-05-28T06:57:41;2.28;;;2.08;;
52112;SDS011;38109;49.488;31.988;2023-05-28T07:00:07;5.72;;;2.30;;
52112;SDS011;38109;49.488;31.988;2023-05-28T07:02:40;2.75;;;2.10;;
52112;SDS011;38109;49.488;31.988;2023-05-28T07:05:06;2.95;;;2.15;;
52112;SDS011;38109;49.488;31.988;2023-05-28T07:07:32;4.75;;;1.70;;
52112;SDS011;38109;49.488;31.988;2023-05-28T07:09:58;3.40;;;2.05;;
52112;SDS011;38109;49.488;31.988;2023-05-28T07:12:24;3.22;;;2.53;;
52112;SDS011;38109;49.488;31.988;2023-05-28T07:14:50;2.60;;;2.05;;
52112;SDS011;38109;49.488;31.988;2023-05-28T07:17:15;2.20;;;2.00;;
52112;SDS011;38109;49.488;31.988;2023-05-28T07:19:41;3.40;;;2.08;;
52112;SDS011;38109;49.488;31.988;2023-05-28T07:22:07;3.03;;;2.15;;
52112;SDS011;38109;49.488;31.988;2023-05-28T07:24:32;4.03;;;2.17;;
52112;SDS011;38109;49.488;31.988;2023-05-28T07:26:58;2.30;;;2.10;;
52112;SDS011;38109;49.488;31.988;2023-05-28T07:29:26;2.80;;;2.03;;
52112;SDS011;38109;49.488;31.988;2023-05-28T07:31:52;2.65;;;1.95;;
52112;SDS011;38109;49.488;31.988;2023-05-28T07:34:18;2.33;;;1.90;;
52112;SDS011;38109;49.488;31.988;2023-05-28T07:36:43;2.78;;;2.00;;
52112;SDS011;38109;49.488;31.988;2023-05-28T07:39:09;2.38;;;1.95;;
52112;SDS011;38109;49.488;31.988;2023-05-28T07:41:38;3.90;;;2.00;;
52112;SDS011;38109;49.488;31.988;2023-05-28T07:44:04;5.72;;;2.20;;
52112;SDS011;38109;49.488;31.988;2023-05-28T07:46:31;2.55;;;2.00;;
52112;SDS011;38109;49.488;31.988;2023-05-28T07:48:57;2.75;;;2.08;;
52112;SDS011;38109;49.488;31.988;2023-05-28T07:51:22;4.55;;;2.28;;
52112;SDS011;38109;49.488;31.988;2023-05-28T07:53:48;2.80;;;2.00;;
52112;SDS011;38109;49.488;31.988;2023-05-28T07:56:14;2.22;;;1.92;;
52112;SDS011;38109;49.488;31.988;2023-05-28T07:58:43;1.83;;;1.73;;
52112;SDS011;38109;49.488;31.988;2023-05-28T08:01:10;3.50;;;1.90;;
52112;SDS011;38109;49.488;31.988;2023-05-28T08:03:36;2.65;;;1.95;;
52112;SDS011;38109;49.488;31.988;2023-05-28T08:06:02;3.30;;;2.13;;
52112;SDS011;38109;49.488;31.988;2023-05-28T08:08:30;3.58;;;2.10;;
52112;SDS011;38109;49.488;31.988;2023-05-28T08:10:55;2.17;;;1.80;;
52112;SDS011;38109;49.488;31.988;2023-05-28T08:13:21;2.33;;;2.05;;
52112;SDS011;38109;49.488;31.988;2023-05-28T08:15:47;2.78;;;2.08;;
52112;SDS011;38109;49.488;31.988;2023-05-28T08:18:13;2.67;;;2.33;;
52112;SDS011;38109;49.488;31.988;2023-05-28T08:20:39;3.65;;;2.03;;
52112;SDS011;38109;49.488;31.988;2023-05-28T08:23:04;3.97;;;2.47;;
52112;SDS011;38109;49.488;31.988;2023-05-28T08:25:30;3.88;;;2.60;;
52112;SDS011;38109;49.488;31.988;2023-05-28T08:27:57;3.20;;;2.13;;
52112;SDS011;38109;49.488;31.988;2023-05-28T08:30:23;2.30;;;2.10;;
52112;SDS011;38109;49.488;31.988;2023-05-28T08:32:48;2.67;;;2.15;;
52112;SDS011;38109;49.488;31.988;2023-05-28T08:35:14;2.88;;;1.98;;
52112;SDS011;38109;49.488;31.988;2023-05-28T08:37:40;4.93;;;2.00;;
52112;SDS011;38109;49.488;31.988;2023-05-28T08:40:06;4.70;;;2.35;;
52112;SDS011;38109;49.488;31.988;2023-05-28T08:42:34;2.53;;;2.00;;
52112;SDS011;38109;49.488;31.988;2023-05-28T08:45:00;2.33;;;2.00;;
52112;SDS011;38109;49.488;31.988;2023-05-28T08:47:28;2.10;;;1.90;;
52112;SDS011;38109;49.488;31.988;2023-05-28T08:49:58;2.85;;;1.92;;
52112;SDS011;38109;49.488;31.988;2023-05-28T08:52:27;2.53;;;2.20;;
52112;SDS011;38109;49.488;31.988;2023-05-28T08:54:57;2.47;;;2.08;;
52112;SDS011;38109;49.488;31.988;2023-05-28T08:57:23;2.15;;;1.95;;
52112;SDS011;38109;49.488;31.988;2023-05-28T08:59:50;2.42;;;1.90;;
52112;SDS011;38109;49.488;31.988;2023-05-28T09:02:21;2.63;;;2.00;;
52112;SDS011;38109;49.488;31.988;2023-05-28T09:04:49;4.55;;;2.38;;
52112;SDS011;38109;49.488;31.988;2023-05-28T09:07:15;2.40;;;2.05;;
52112;SDS011;38109;49.488;31.988;2023-05-28T09:09:41;3.60;;;2.10;;
52112;SDS011;38109;49.488;31.988;2023-05-28T09:12:10;4.95;;;2.03;;
52112;SDS011;38109;49.488;31.988;2023-05-28T09:14:38;3.45;;;2.33;;
52112;SDS011;38109;49.488;31.988;2023-05-28T09:17:05;1.90;;;1.80;;
52112;SDS011;38109;49.488;31.988;2023-05-28T09:19:33;3.83;;;2.30;;
52112;SDS011;38109;49.488;31.988;2023-05-28T09:22:00;2.97;;;2.05;;
52112;SDS011;38109;49.488;31.988;2023-05-28T09:24:28;2.78;;;2.25;;
52112;SDS011;38109;49.488;31.988;2023-05-28T09:26:55;2.40;;;2.15;;
52112;SDS011;38109;49.488;31.988;2023-05-28T09:29:22;3.33;;;2.38;;
52112;SDS011;38109;49.488;31.988;2023-05-28T09:31:55;2.53;;;2.20;;
52112;SDS011;38109;49.488;31.988;2023-05-28T09:34:26;4.50;;;2.78;;
52112;SDS011;38109;49.488;31.988;2023-05-28T09:36:53;2.35;;;2.03;;
52112;SDS011;38109;49.488;31.988;2023-05-28T09:39:24;3.80;;;2.20;;
52112;SDS011;38109;49.488;31.988;2023-05-28T09:44:33;5.00;;;2.85;;
52112;SDS011;38109;49.488;31.988;2023-05-28T09:46:59;3.22;;;2.33;;
52112;SDS011;38109;49.488;31.988;2023-05-28T09:49:28;3.00;;;2.58;;
52112;SDS011;38109;49.488;31.988;2023-05-28T09:51:57;3.78;;;2.67;;
52112;SDS011;38109;49.488;31.988;2023-05-28T09:54:27;2.88;;;2.60;;
52112;SDS011;38109;49.488;31.988;2023-05-28T09:57:00;3.45;;;2.53;;
52112;SDS011;38109;49.488;31.988;2023-05-28T09:59:30;3.17;;;2.47;;
52112;SDS011;38109;49.488;31.988;2023-05-28T10:05:02;3.17;;;2.17;;
52112;SDS011;38109;49.488;31.988;2023-05-28T10:07:31;2.30;;;2.10;;
52112;SDS011;38109;49.488;31.988;2023-05-28T10:10:00;2.30;;;2.10;;
52112;SDS011;38109;49.488;31.988;2023-05-28T10:12:28;2.13;;;1.80;;
52112;SDS011;38109;49.488;31.988;2023-05-28T10:14:54;2.20;;;1.98;;
52112;SDS011;38109;49.488;31.988;2023-05-28T10:17:21;2.28;;;1.75;;
52112;SDS011;38109;49.488;31.988;2023-05-28T10:19:47;2.25;;;1.80;;
52112;SDS011;38109;49.488;31.988;2023-05-28T10:22:13;3.83;;;2.03;;
52112;SDS011;38109;49.488;31.988;2023-05-28T10:24:40;2.63;;;1.90;;
52112;SDS011;38109;49.488;31.988;2023-05-28T10:27:07;3.70;;;2.40;;
52112;SDS011;38109;49.488;31.988;2023-05-28T10:29:40;3.42;;;2.50;;
52112;SDS011;38109;49.488;31.988;2023-05-28T10:32:09;2.92;;;2.40;;
52112;SDS011;38109;49.488;31.988;2023-05-28T10:34:38;3.50;;;2.03;;
52112;SDS011;38109;49.488;31.988;2023-05-28T10:37:05;2.10;;;1.90;;
52112;SDS011;38109;49.488;31.988;2023-05-28T10:39:44;2.38;;;2.17;;
52112;SDS011;38109;49.488;31.988;2023-05-28T10:42:17;3.20;;;2.22;;
52112;SDS011;38109;49.488;31.988;2023-05-28T10:52:34;2.45;;;2.25;;
52112;SDS011;38109;49.488;31.988;2023-05-28T10:55:03;2.90;;;2.40;;
52112;SDS011;38109;49.488;31.988;2023-05-28T10:57:43;2.83;;;2.22;;
52112;SDS011;38109;49.488;31.988;2023-05-28T11:00:10;2.58;;;2.30;;
52112;SDS011;38109;49.488;31.988;2023-05-28T11:02:40;3.13;;;2.25;;
52112;SDS011;38109;49.488;31.988;2023-05-28T11:05:09;2.63;;;2.25;;
52112;SDS011;38109;49.488;31.988;2023-05-28T11:07:35;6.00;;;4.55;;
52112;SDS011;38109;49.488;31.988;2023-05-28T11:10:03;4.65;;;2.53;;
52112;SDS011;38109;49.488;31.988;2023-05-28T11:12:31;2.28;;;2.05;;
52112;SDS011;38109;49.488;31.988;2023-05-28T11:14:59;4.10;;;2.50;;
52112;SDS011;38109;49.488;31.988;2023-05-28T11:17:25;2.67;;;2.28;;
52112;SDS011;38109;49.488;31.988;2023-05-28T11:19:51;2.80;;;2.45;;
52112;SDS011;38109;49.488;31.988;2023-05-28T11:22:18;2.53;;;2.25;;
52112;SDS011;38109;49.488;31.988;2023-05-28T11:24:53;2.60;;;2.40;;
52112;SDS011;38109;49.488;31.988;2023-05-28T11:27:30;3.10;;;2.47;;
52112;SDS011;38109;49.488;31.988;2023-05-28T11:29:58;3.85;;;2.45;;
52112;SDS011;38109;49.488;31.988;2023-05-28T11:32:25;2.90;;;2.60;;
52112;SDS011;38109;49.488;31.988;2023-05-28T11:34:52;5.30;;;3.47;;
52112;SDS011;38109;49.488;31.988;2023-05-28T11:37:23;3.78;;;2.90;;
52112;SDS011;38109;49.488;31.988;2023-05-28T11:39:53;3.65;;;2.65;;
52112;SDS011;38109;49.488;31.988;2023-05-28T11:42:20;2.42;;;2.22;;
52112;SDS011;38109;49.488;31.988;2023-05-28T11:44:48;3.25;;;2.72;;
52112;SDS011;38109;49.488;31.988;2023-05-28T11:47:14;3.22;;;2.30;;
52112;SDS011;38109;49.488;31.988;2023-05-28T11:49:40;4.03;;;2.78;;
52112;SDS011;38109;49.488;31.988;2023-05-28T11:52:10;2.50;;;2.28;;
52112;SDS011;38109;49.488;31.988;2023-05-28T11:54:37;4.13;;;2.28;;
52112;SDS011;38109;49.488;31.988;2023-05-28T11:57:04;2.60;;;2.05;;
52112;SDS011;38109;49.488;31.988;2023-05-28T11:59:31;2.35;;;2.13;;
52112;SDS011;38109;49.488;31.988;2023-05-28T12:02:10;2.60;;;2.40;;
52112;SDS011;38109;49.488;31.988;2023-05-28T12:04:37;2.60;;;2.40;;
52112;SDS011;38109;49.488;31.988;2023-05-28T12:07:03;2.47;;;2.22;;
52112;SDS011;38109;49.488;31.988;2023-05-28T12:09:28;2.70;;;2.45;;
52112;SDS011;38109;49.488;31.988;2023-05-28T12:12:00;2.45;;;2.25;;
52112;SDS011;38109;49.488;31.988;2023-05-28T12:14:36;2.55;;;2.35;;
52112;SDS011;38109;49.488;31.988;2023-05-28T12:17:06;3.00;;;2.30;;
52112;SDS011;38109;49.488;31.988;2023-05-28T12:19:34;3.20;;;2.65;;
52112;SDS011;38109;49.488;31.988;2023-05-28T12:22:00;2.30;;;2.10;;
52112;SDS011;38109;49.488;31.988;2023-05-28T12:24:27;2.60;;;2.38;;
52112;SDS011;38109;49.488;31.988;2023-05-28T12:26:53;3.20;;;2.25;;
52112;SDS011;38109;49.488;31.988;2023-05-28T12:29:18;2.38;;;2.17;;
52112;SDS011;38109;49.488;31.988;2023-05-28T12:31:44;3.50;;;2.30;;
52112;SDS011;38109;49.488;31.988;2023-05-28T12:34:11;3.22;;;2.40;;
52112;SDS011;38109;49.488;31.988;2023-05-28T12:36:36;2.70;;;2.42;;
52112;SDS011;38109;49.488;31.988;2023-05-28T12:39:03;2.50;;;2.30;;
52112;SDS011;38109;49.488;31.988;2023-05-28T12:41:30;3.22;;;2.22;;
52112;SDS011;38109;49.488;31.988;2023-05-28T12:43:55;2.35;;;2.10;;
52112;SDS011;38109;49.488;31.988;2023-05-28T12:46:21;3.10;;;2.40;;
52112;SDS011;38109;49.488;31.988;2023-05-28T12:48:47;3.67;;;2.10;;
52112;SDS011;38109;49.488;31.988;2023-05-28T12:51:12;2.65;;;2.40;;
52112;SDS011;38109;49.488;31.988;2023-05-28T12:53:39;3.35;;;2.30;;
52112;SDS011;38109;49.488;31.988;2023-05-28T12:56:05;5.53;;;2.25;;
52112;SDS011;38109;49.488;31.988;2023-05-28T12:58:31;2.95;;;2.58;;
52112;SDS011;38109;49.488;31.988;2023-05-28T13:00:56;3.00;;;2.70;;
52112;SDS011;38109;49.488;31.988;2023-05-28T13:03:22;2.65;;;2.45;;
52112;SDS011;38109;49.488;31.988;2023-05-28T13:05:47;3.80;;;2.47;;
52112;SDS011;38109;49.488;31.988;2023-05-28T13:08:14;4.07;;;2.50;;
52112;SDS011;38109;49.488;31.988;2023-05-28T13:10:39;2.58;;;2.28;;
52112;SDS011;38109;49.488;31.988;2023-05-28T13:13:05;2.50;;;2.30;;
52112;SDS011;38109;49.488;31.988;2023-05-28T13:15:31;3.28;;;2.60;;
52112;SDS011;38109;49.488;31.988;2023-05-28T13:17:56;2.72;;;2.50;;
52112;SDS011;38109;49.488;31.988;2023-05-28T13:20:22;2.72;;;2.28;;
52112;SDS011;38109;49.488;31.988;2023-05-28T13:22:48;3.47;;;2.22;;
52112;SDS011;38109;49.488;31.988;2023-05-28T13:25:13;3.33;;;2.50;;
52112;SDS011;38109;49.488;31.988;2023-05-28T13:27:39;2.80;;;2.40;;
52112;SDS011;38109;49.488;31.988;2023-05-28T13:30:05;2.97;;;2.45;;
52112;SDS011;38109;49.488;31.988;2023-05-28T13:32:31;2.80;;;2.60;;
52112;SDS011;38109;49.488;31.988;2023-05-28T13:34:57;3.22;;;2.40;;
52112;SDS011;38109;49.488;31.988;2023-05-28T13:37:23;5.05;;;2.30;;
52112;SDS011;38109;49.488;31.988;2023-05-28T13:39:48;5.68;;;2.78;;
52112;SDS011;38109;49.488;31.988;2023-05-28T13:42:14;2.83;;;2.55;;
52112;SDS011;38109;49.488;31.988;2023-05-28T13:44:44;2.92;;;2.45;;
52112;SDS011;38109;49.488;31.988;2023-05-28T13:47:13;2.78;;;2.58;;
52112;SDS011;38109;49.488;31.988;2023-05-28T13:49:38;2.80;;;2.58;;
52112;SDS011;38109;49.488;31.988;2023-05-28T13:52:04;3.08;;;2.55;;
52112;SDS011;38109;49.488;31.988;2023-05-28T13:54:30;3.17;;;2.60;;
52112;SDS011;38109;49.488;31.988;2023-05-28T13:56:56;2.80;;;2.53;;
52112;SDS011;38109;49.488;31.988;2023-05-28T13:59:21;2.50;;;2.30;;
52112;SDS011;38109;49.488;31.988;2023-05-28T14:01:47;4.60;;;2.72;;
52112;SDS011;38109;49.488;31.988;2023-05-28T14:04:13;2.70;;;2.45;;
52112;SDS011;38109;49.488;31.988;2023-05-28T14:06:38;3.13;;;2.80;;
52112;SDS011;38109;49.488;31.988;2023-05-28T14:09:04;2.70;;;2.50;;
52112;SDS011;38109;49.488;31.988;2023-05-28T14:11:30;3.38;;;2.70;;
52112;SDS011;38109;49.488;31.988;2023-05-28T14:13:56;3.25;;;2.40;;
52112;SDS011;38109;49.488;31.988;2023-05-28T14:16:21;4.57;;;2.25;;
52112;SDS011;38109;49.488;31.988;2023-05-28T14:18:47;2.30;;;2.10;;
52112;SDS011;38109;49.488;31.988;2023-05-28T14:21:13;2.33;;;2.00;;
52112;SDS011;38109;49.488;31.988;2023-05-28T14:23:38;2.17;;;2.00;;
52112;SDS011;38109;49.488;31.988;2023-05-28T14:26:04;2.33;;;2.13;;
52112;SDS011;38109;49.488;31.988;2023-05-28T14:28:30;2.83;;;2.10;;
52112;SDS011;38109;49.488;31.988;2023-05-28T14:30:56;2.75;;;2.30;;
52112;SDS011;38109;49.488;31.988;2023-05-28T14:33:21;1.98;;;1.88;;
52112;SDS011;38109;49.488;31.988;2023-05-28T14:35:47;2.55;;;2.35;;
52112;SDS011;38109;49.488;31.988;2023-05-28T14:38:13;2.45;;;2.20;;
52112;SDS011;38109;49.488;31.988;2023-05-28T14:40:38;3.90;;;2.30;;
52112;SDS011;38109;49.488;31.988;2023-05-28T14:43:04;3.03;;;2.72;;